Time;durP1;ratioP1;P1;durP2;ratioP2;P2;SDS_P1;SDS_P2;PMS_P1;PMS_P2;Temp;Humidity;BMP_temperature;BMP_pressure;BME280_temperature;BME280_humidity;BME280_pressure;Samples;Min_cycle;Max_cycle;Signal;HPM_P1;HPM_P2
2021/09/15 00:00:39;;;;;;;2.80;2.60;;;;;;;;;;4704799;30;20237;-84
2021/09/15 00:03:06;;;;;;;2.33;2.13;;;;;;;;;;4705360;30;20211;-83
2021/09/15 00:05:34;;;;;;;2.13;1.95;;;;;;;;;;4705955;30;20222;-85
2021/09/15 00:08:01;;;;;;;3.05;2.22;;;;;;;;;;4704897;30;20234;-84
2021/09/15 00:10:28;;;;;;;2.65;2.45;;;;;;;;;;4706049;30;20236;-83
2021/09/15 00:12:56;;;;;;;2.60;2.40;;;;;;;;;;4706412;30;20595;-85
2021/09/15 00:15:23;;;;;;;2.13;2.03;;;;;;;;;;4705756;30;20224;-84
2021/09/15 00:17:56;;;;;;;2.97;2.78;;;;;;;;;;4702554;30;20223;-83
2021/09/15 00:20:23;;;;;;;2.13;2.03;;;;;;;;;;4689919;30;20231;-84
2021/09/15 00:22:51;;;;;;;2.28;2.15;;;;;;;;;;4703559;30;20219;-85
2021/09/15 00:25:18;;;;;;;3.20;2.30;;;;;;;;;;4707767;30;20195;-84
2021/09/15 00:27:46;;;;;;;2.60;2.40;;;;;;;;;;4705030;30;20237;-84
2021/09/15 00:30:15;;;;;;;4.28;2.80;;;;;;;;;;4704122;30;20199;-83
2021/09/15 00:32:43;;;;;;;2.85;2.65;;;;;;;;;;4692221;30;20230;-86
2021/09/15 00:35:15;;;;;;;4.60;4.05;;;;;;;;;;4686564;30;20215;-84
2021/09/15 00:37:42;;;;;;;3.65;3.35;;;;;;;;;;4685944;30;20246;-85
2021/09/15 00:40:11;;;;;;;4.88;4.30;;;;;;;;;;4699976;30;20233;-84
2021/09/15 00:42:39;;;;;;;3.55;3.25;;;;;;;;;;4702227;30;20207;-85
2021/09/15 00:45:07;;;;;;;4.68;4.03;;;;;;;;;;4703949;30;20202;-84
2021/09/15 00:47:35;;;;;;;4.30;4.00;;;;;;;;;;4693759;30;20226;-84
2021/09/15 00:50:03;;;;;;;4.28;3.95;;;;;;;;;;4686031;30;20207;-85
2021/09/15 00:52:31;;;;;;;3.40;3.10;;;;;;;;;;4686137;30;20198;-84
2021/09/15 00:54:59;;;;;;;3.60;3.30;;;;;;;;;;4693384;30;20217;-83
2021/09/15 00:57:26;;;;;;;2.55;2.40;;;;;;;;;;4704691;30;20242;-83
2021/09/15 00:59:54;;;;;;;2.80;2.60;;;;;;;;;;4701142;30;20260;-84
2021/09/15 01:02:21;;;;;;;3.58;3.10;;;;;;;;;;4701984;30;20573;-84
2021/09/15 01:04:48;;;;;;;3.05;2.85;;;;;;;;;;4701832;30;20218;-84
2021/09/15 01:07:16;;;;;;;3.00;2.80;;;;;;;;;;4695851;30;20231;-82
2021/09/15 01:09:46;;;;;;;3.78;3.47;;;;;;;;;;4683999;30;20667;-84
2021/09/15 01:12:13;;;;;;;2.85;2.65;;;;;;;;;;4683995;30;20203;-84
2021/09/15 01:14:42;;;;;;;3.30;3.10;;;;;;;;;;4682966;30;20222;-83
2021/09/15 01:17:10;;;;;;;3.10;2.90;;;;;;;;;;4699784;30;20231;-84
2021/09/15 01:19:37;;;;;;;2.92;2.72;;;;;;;;;;4701697;30;20199;-84
2021/09/15 01:22:07;;;;;;;2.80;2.60;;;;;;;;;;4701524;30;20230;-84
2021/09/15 01:24:34;;;;;;;2.50;2.30;;;;;;;;;;4700966;30;20294;-85
2021/09/15 01:27:02;;;;;;;2.40;2.30;;;;;;;;;;4691642;30;20242;-84
2021/09/15 01:29:32;;;;;;;3.08;2.17;;;;;;;;;;4684018;30;20577;-84
2021/09/15 01:32:02;;;;;;;2.78;2.58;;;;;;;;;;4683915;30;20192;-84
2021/09/15 01:34:33;;;;;;;2.95;2.75;;;;;;;;;;4693786;30;20214;-84
2021/09/15 01:37:00;;;;;;;2.80;2.60;;;;;;;;;;4700939;30;20251;-84
2021/09/15 01:39:29;;;;;;;2.33;2.05;;;;;;;;;;4700742;30;20303;-83
2021/09/15 01:41:58;;;;;;;2.13;2.03;;;;;;;;;;4701011;30;20242;-83
2021/09/15 01:44:36;;;;;;;2.78;2.65;;;;;;;;;;4700863;30;20214;-83
2021/09/15 01:47:04;;;;;;;2.45;2.17;;;;;;;;;;4700790;30;20233;-82
2021/09/15 01:49:33;;;;;;;2.35;2.15;;;;;;;;;;4701063;30;20205;-83
2021/09/15 01:52:01;;;;;;;3.08;2.85;;;;;;;;;;4701019;30;20202;-84
2021/09/15 01:54:30;;;;;;;2.83;2.63;;;;;;;;;;4700012;30;20206;-84
2021/09/15 01:57:02;;;;;;;2.67;2.47;;;;;;;;;;4700708;30;20426;-83
2021/09/15 01:59:30;;;;;;;2.55;2.38;;;;;;;;;;4701118;30;20211;-82
2021/09/15 02:01:57;;;;;;;2.22;2.05;;;;;;;;;;4700431;30;20714;-84
2021/09/15 02:04:25;;;;;;;3.35;3.05;;;;;;;;;;4700943;30;20199;-84
2021/09/15 02:06:52;;;;;;;2.20;2.10;;;;;;;;;;4700764;30;20241;-83
2021/09/15 02:09:20;;;;;;;1.70;1.60;;;;;;;;;;4700746;30;20222;-83
2021/09/15 02:11:49;;;;;;;2.05;1.95;;;;;;;;;;4698884;30;20217;-83
2021/09/15 02:14:16;;;;;;;2.65;2.45;;;;;;;;;;4700096;30;20218;-83
2021/09/15 02:16:45;;;;;;;1.67;1.58;;;;;;;;;;4700190;30;20234;-83
2021/09/15 02:19:12;;;;;;;1.92;1.83;;;;;;;;;;4700447;30;20209;-84
2021/09/15 02:21:40;;;;;;;2.15;2.05;;;;;;;;;;4700463;30;20250;-84
2021/09/15 02:24:08;;;;;;;2.33;2.13;;;;;;;;;;4699543;30;20199;-84
2021/09/15 02:26:36;;;;;;;2.13;2.03;;;;;;;;;;4709452;30;20241;-84
2021/09/15 02:29:05;;;;;;;1.77;1.67;;;;;;;;;;4689466;30;20219;-84
2021/09/15 02:31:33;;;;;;;15.60;14.00;;;;;;;;;;4683333;30;20226;-83
2021/09/15 02:34:01;;;;;;;9.57;8.68;;;;;;;;;;4691313;30;20584;-83
2021/09/15 02:36:28;;;;;;;5.85;5.25;;;;;;;;;;4699960;30;20258;-82
2021/09/15 02:38:56;;;;;;;4.75;4.35;;;;;;;;;;4700538;30;20220;-82
2021/09/15 02:41:23;;;;;;;3.53;3.22;;;;;;;;;;4699118;30;20238;-84
2021/09/15 02:43:51;;;;;;;2.80;2.60;;;;;;;;;;4700120;30;20214;-83
2021/09/15 02:46:21;;;;;;;3.08;2.78;;;;;;;;;;4700461;30;20285;-84
2021/09/15 02:48:48;;;;;;;3.22;2.50;;;;;;;;;;4700553;30;20214;-83
2021/09/15 02:51:16;;;;;;;2.05;1.90;;;;;;;;;;4700509;30;20225;-84
2021/09/15 02:53:43;;;;;;;2.22;2.03;;;;;;;;;;4700403;30;20195;-83
2021/09/15 02:56:11;;;;;;;1.65;1.55;;;;;;;;;;4689771;30;20217;-83
2021/09/15 02:58:38;;;;;;;1.92;1.83;;;;;;;;;;4683279;30;20211;-83
2021/09/15 03:01:06;;;;;;;1.60;1.50;;;;;;;;;;4689625;30;20206;-83
2021/09/15 03:03:34;;;;;;;1.65;1.55;;;;;;;;;;4700469;30;20206;-82
2021/09/15 03:06:02;;;;;;;1.90;1.80;;;;;;;;;;4699827;30;20218;-83
2021/09/15 03:08:29;;;;;;;2.20;2.10;;;;;;;;;;4700441;30;20214;-83
2021/09/15 03:10:57;;;;;;;1.70;1.60;;;;;;;;;;4700192;30;20201;-84
2021/09/15 03:13:24;;;;;;;2.00;1.90;;;;;;;;;;4702308;30;20203;-84
2021/09/15 03:15:52;;;;;;;1.90;1.80;;;;;;;;;;4703319;30;20195;-84
2021/09/15 03:18:24;;;;;;;1.58;1.48;;;;;;;;;;4701575;30;20295;-83
2021/09/15 03:21:01;;;;;;;1.63;1.52;;;;;;;;;;4701331;30;20194;-83
2021/09/15 03:23:29;;;;;;;1.90;1.80;;;;;;;;;;4698135;30;20342;-85
2021/09/15 03:25:57;;;;;;;2.58;2.47;;;;;;;;;;4696365;30;20261;-84
2021/09/15 03:28:24;;;;;;;2.45;2.25;;;;;;;;;;4700894;30;20376;-83
2021/09/15 03:30:52;;;;;;;1.88;1.77;;;;;;;;;;4699583;30;20274;-85
2021/09/15 03:33:20;;;;;;;4.88;1.98;;;;;;;;;;4687534;30;20249;-84
2021/09/15 03:35:48;;;;;;;1.50;1.40;;;;;;;;;;4686752;30;20203;-84
2021/09/15 03:38:17;;;;;;;1.63;1.52;;;;;;;;;;4694556;30;20610;-84
2021/09/15 03:40:45;;;;;;;1.77;1.67;;;;;;;;;;4700911;30;20207;-84
2021/09/15 03:43:13;;;;;;;1.50;1.40;;;;;;;;;;4702791;30;20278;-85
2021/09/15 03:45:41;;;;;;;1.45;1.35;;;;;;;;;;4703806;30;20637;-84
2021/09/15 03:48:08;;;;;;;1.23;1.23;;;;;;;;;;4703842;30;20660;-84
2021/09/15 03:50:36;;;;;;;1.13;1.13;;;;;;;;;;4699960;30;20219;-84
2021/09/15 03:53:04;;;;;;;1.60;1.50;;;;;;;;;;4701294;30;20297;-85
2021/09/15 03:55:32;;;;;;;1.80;1.70;;;;;;;;;;4683610;30;20221;-83
2021/09/15 03:58:00;;;;;;;1.60;1.50;;;;;;;;;;4700071;30;20242;-85
2021/09/15 04:00:27;;;;;;;1.40;1.30;;;;;;;;;;4701234;30;20202;-85
2021/09/15 04:02:55;;;;;;;24.27;21.70;;;;;;;;;;4701940;30;20237;-85
2021/09/15 04:05:22;;;;;;;16.35;13.75;;;;;;;;;;4701450;30;20238;-85
2021/09/15 04:07:50;;;;;;;8.23;7.43;;;;;;;;;;4702268;30;20227;-85
2021/09/15 04:10:18;;;;;;;5.13;4.68;;;;;;;;;;4701183;30;20219;-83
2021/09/15 04:12:46;;;;;;;4.05;3.65;;;;;;;;;;4700879;30;20206;-84
2021/09/15 04:15:14;;;;;;;2.85;2.60;;;;;;;;;;4700666;30;20214;-84
2021/09/15 04:17:42;;;;;;;2.00;1.83;;;;;;;;;;4703569;30;20237;-84
2021/09/15 04:20:10;;;;;;;2.00;1.90;;;;;;;;;;4703786;30;20716;-84
2021/09/15 04:22:40;;;;;;;2.38;2.25;;;;;;;;;;4705003;30;20759;-84
2021/09/15 04:33:25;;;;;;;1.23;1.23;;;;;;;;;;4687803;30;20709;-84
2021/09/15 04:35:52;;;;;;;1.98;1.88;;;;;;;;;;4687562;30;20191;-85
2021/09/15 04:38:20;;;;;;;2.05;1.95;;;;;;;;;;4687783;30;20243;-84
2021/09/15 04:41:00;;;;;;;1.80;1.70;;;;;;;;;;4701789;30;20220;-83
2021/09/15 04:43:29;;;;;;;1.80;1.70;;;;;;;;;;4689923;30;20278;-83
2021/09/15 04:45:57;;;;;;;1.83;1.73;;;;;;;;;;4688433;30;20301;-85
2021/09/15 04:48:24;;;;;;;1.58;1.48;;;;;;;;;;4690145;30;20712;-85
2021/09/15 04:50:52;;;;;;;1.95;1.85;;;;;;;;;;4691558;30;20223;-84
2021/09/15 04:53:21;;;;;;;1.70;1.60;;;;;;;;;;4701577;30;20230;-83
2021/09/15 04:55:48;;;;;;;1.88;1.67;;;;;;;;;;4705778;30;20253;-83
2021/09/15 04:58:16;;;;;;;2.22;2.13;;;;;;;;;;4704699;30;20820;-84
2021/09/15 05:00:45;;;;;;;2.63;1.80;;;;;;;;;;4702663;30;20309;-84
2021/09/15 05:03:12;;;;;;;1.98;1.88;;;;;;;;;;4705764;30;20597;-83
2021/09/15 05:05:40;;;;;;;2.05;1.95;;;;;;;;;;4715192;30;20282;-85
2021/09/15 05:08:07;;;;;;;3.05;2.85;;;;;;;;;;4717362;30;20782;-84
2021/09/15 05:10:35;;;;;;;2.50;2.30;;;;;;;;;;4689432;30;20250;-84
2021/09/15 05:13:02;;;;;;;3.00;2.80;;;;;;;;;;4707008;30;20224;-84
2021/09/15 05:15:30;;;;;;;2.72;2.53;;;;;;;;;;4707333;30;20210;-85
2021/09/15 05:17:59;;;;;;;1.90;1.80;;;;;;;;;;4704757;30;20230;-85
2021/09/15 05:20:26;;;;;;;1.77;1.67;;;;;;;;;;4704667;30;20226;-84
2021/09/15 05:22:56;;;;;;;1.90;1.80;;;;;;;;;;4703529;30;20239;-85
2021/09/15 05:25:25;;;;;;;1.58;1.48;;;;;;;;;;4702981;30;20231;-83
2021/09/15 05:27:53;;;;;;;2.10;2.00;;;;;;;;;;4690287;30;20227;-85
2021/09/15 05:30:21;;;;;;;2.22;2.13;;;;;;;;;;4687688;30;20199;-83
2021/09/15 05:32:49;;;;;;;2.67;2.47;;;;;;;;;;4688907;30;20203;-82
2021/09/15 05:35:17;;;;;;;2.53;2.35;;;;;;;;;;4688589;30;20215;-84
2021/09/15 05:37:45;;;;;;;1.95;1.85;;;;;;;;;;4687093;30;20640;-82
2021/09/15 05:40:14;;;;;;;1.77;1.67;;;;;;;;;;4688533;30;20235;-83
2021/09/15 05:42:41;;;;;;;1.88;1.77;;;;;;;;;;4689606;30;20235;-82
2021/09/15 05:45:10;;;;;;;2.15;2.00;;;;;;;;;;4688089;30;20547;-83
2021/09/15 05:47:42;;;;;;;2.28;2.17;;;;;;;;;;4687298;30;20241;-83
2021/09/15 05:50:21;;;;;;;2.08;1.90;;;;;;;;;;4686653;30;20215;-83
2021/09/15 05:52:49;;;;;;;5.45;2.47;;;;;;;;;;4684687;30;20597;-83
2021/09/15 05:55:17;;;;;;;2.20;2.00;;;;;;;;;;4685815;30;20234;-83
2021/09/15 05:57:44;;;;;;;2.25;2.08;;;;;;;;;;4685747;30;20270;-83
2021/09/15 06:00:13;;;;;;;2.17;2.08;;;;;;;;;;4686515;30;20679;-83
2021/09/15 06:02:40;;;;;;;2.50;2.30;;;;;;;;;;4686791;30;20207;-82
2021/09/15 06:05:09;;;;;;;2.40;2.30;;;;;;;;;;4686521;30;20237;-82
2021/09/15 06:07:38;;;;;;;3.35;2.22;;;;;;;;;;4687535;30;20323;-82
2021/09/15 06:10:07;;;;;;;2.20;2.00;;;;;;;;;;4686560;30;20293;-83
2021/09/15 06:12:34;;;;;;;1.88;1.77;;;;;;;;;;4703572;30;20230;-82
2021/09/15 06:15:02;;;;;;;2.22;2.13;;;;;;;;;;4703579;30;20206;-82
2021/09/15 06:17:29;;;;;;;2.00;1.90;;;;;;;;;;4686625;30;20314;-83
2021/09/15 06:19:57;;;;;;;2.63;2.42;;;;;;;;;;4699777;30;20215;-84
2021/09/15 06:22:24;;;;;;;2.30;2.13;;;;;;;;;;4686659;30;20243;-85
2021/09/15 06:24:54;;;;;;;2.25;2.15;;;;;;;;;;4689486;30;20221;-84
2021/09/15 06:27:22;;;;;;;2.55;2.35;;;;;;;;;;4702828;30;20252;-84
2021/09/15 06:29:50;;;;;;;2.70;2.50;;;;;;;;;;4699082;30;20560;-84
2021/09/15 06:32:20;;;;;;;2.70;2.50;;;;;;;;;;4703467;30;20750;-84
2021/09/15 06:34:47;;;;;;;2.83;2.60;;;;;;;;;;4703688;30;20195;-84
2021/09/15 06:37:16;;;;;;;2.53;2.30;;;;;;;;;;4703313;30;20242;-83
2021/09/15 06:39:44;;;;;;;2.53;2.33;;;;;;;;;;4703240;30;20210;-84
2021/09/15 06:42:15;;;;;;;2.85;2.65;;;;;;;;;;4701829;30;20210;-84
2021/09/15 06:44:42;;;;;;;3.33;3.13;;;;;;;;;;4698382;30;20222;-84
2021/09/15 06:47:10;;;;;;;3.28;2.97;;;;;;;;;;4703275;30;20230;-84
2021/09/15 06:49:37;;;;;;;3.83;3.53;;;;;;;;;;4703027;30;20675;-84
2021/09/15 06:52:05;;;;;;;3.03;2.83;;;;;;;;;;4703164;30;20219;-84
2021/09/15 06:54:33;;;;;;;3.78;3.22;;;;;;;;;;4703405;30;20202;-83
2021/09/15 06:57:00;;;;;;;3.55;2.70;;;;;;;;;;4702350;30;20233;-85
2021/09/15 06:59:29;;;;;;;2.72;2.53;;;;;;;;;;4702231;30;20222;-85
2021/09/15 07:01:57;;;;;;;2.90;2.70;;;;;;;;;;4701156;30;20228;-85
2021/09/15 07:04:24;;;;;;;3.45;2.90;;;;;;;;;;4700561;30;20310;-85
2021/09/15 07:06:52;;;;;;;4.22;3.53;;;;;;;;;;4697841;30;20248;-85
2021/09/15 07:09:19;;;;;;;3.53;3.28;;;;;;;;;;4700108;30;20656;-83
2021/09/15 07:11:47;;;;;;;2.63;2.42;;;;;;;;;;4701043;30;20206;-85
2021/09/15 07:14:15;;;;;;;2.97;2.78;;;;;;;;;;4701182;30;20210;-84
2021/09/15 07:16:43;;;;;;;2.42;2.22;;;;;;;;;;4702085;30;20237;-84
2021/09/15 07:19:11;;;;;;;3.05;2.35;;;;;;;;;;4700043;30;20282;-87
2021/09/15 07:21:38;;;;;;;4.72;2.35;;;;;;;;;;4699250;30;20206;-87
2021/09/15 07:24:06;;;;;;;2.42;2.15;;;;;;;;;;4699053;30;20248;-85
2021/09/15 07:26:34;;;;;;;3.95;2.70;;;;;;;;;;4699993;30;20749;-86
2021/09/15 07:29:01;;;;;;;3.25;3.05;;;;;;;;;;4692010;30;20200;-87
2021/09/15 07:31:31;;;;;;;3.33;3.03;;;;;;;;;;4696176;30;20206;-87
2021/09/15 07:34:00;;;;;;;4.00;3.50;;;;;;;;;;4699708;30;20900;-86
2021/09/15 07:36:27;;;;;;;3.92;3.08;;;;;;;;;;4699375;30;20242;-86
2021/09/15 07:38:55;;;;;;;4.28;3.97;;;;;;;;;;4699356;30;20203;-87
2021/09/15 07:41:22;;;;;;;6.55;4.18;;;;;;;;;;4699352;30;20202;-84
2021/09/15 07:43:50;;;;;;;4.00;3.70;;;;;;;;;;4699030;30;20195;-86
2021/09/15 07:46:21;;;;;;;4.28;3.97;;;;;;;;;;4698978;30;20387;-86
2021/09/15 07:48:48;;;;;;;3.40;3.17;;;;;;;;;;4699421;30;20202;-87
2021/09/15 07:51:17;;;;;;;4.00;3.70;;;;;;;;;;4682457;30;20222;-87
2021/09/15 07:53:45;;;;;;;3.33;3.13;;;;;;;;;;4686207;30;20551;-84
2021/09/15 07:56:13;;;;;;;4.45;4.15;;;;;;;;;;4685938;30;20573;-87
2021/09/15 07:58:40;;;;;;;4.07;3.78;;;;;;;;;;4699668;30;20202;-86
2021/09/15 08:01:08;;;;;;;5.30;4.78;;;;;;;;;;4702728;30;20314;-86
2021/09/15 08:03:35;;;;;;;4.65;4.25;;;;;;;;;;4702616;30;20214;-84
2021/09/15 08:06:04;;;;;;;4.80;4.40;;;;;;;;;;4702667;30;20230;-85
2021/09/15 08:08:33;;;;;;;4.57;3.95;;;;;;;;;;4704463;30;20216;-86
2021/09/15 08:11:02;;;;;;;4.80;4.15;;;;;;;;;;4702525;30;20206;-84
2021/09/15 08:13:29;;;;;;;4.53;4.05;;;;;;;;;;4702264;30;20221;-86
2021/09/15 08:15:57;;;;;;;4.65;4.30;;;;;;;;;;4702669;30;20286;-87
2021/09/15 08:18:24;;;;;;;5.40;4.95;;;;;;;;;;4701007;30;20233;-87
2021/09/15 08:20:52;;;;;;;4.68;4.35;;;;;;;;;;4696710;30;20211;-88
2021/09/15 08:23:19;;;;;;;4.75;4.35;;;;;;;;;;4685199;30;20578;-87
2021/09/15 08:25:48;;;;;;;5.35;4.85;;;;;;;;;;4684068;30;20721;-87
2021/09/15 08:28:16;;;;;;;5.50;5.00;;;;;;;;;;4684728;30;20227;-87
2021/09/15 08:30:43;;;;;;;4.88;4.47;;;;;;;;;;4685199;30;20249;-85
2021/09/15 08:33:11;;;;;;;5.10;4.70;;;;;;;;;;4684730;30;20203;-87
2021/09/15 08:35:38;;;;;;;4.85;4.45;;;;;;;;;;4684860;30;20204;-87
2021/09/15 08:38:06;;;;;;;4.40;4.00;;;;;;;;;;4684517;30;20794;-86
2021/09/15 08:40:34;;;;;;;4.80;4.43;;;;;;;;;;4684424;30;20589;-89
2021/09/15 08:43:03;;;;;;;5.93;5.47;;;;;;;;;;4686941;30;20211;-87
2021/09/15 08:45:30;;;;;;;4.38;4.07;;;;;;;;;;4701747;30;20585;-87
2021/09/15 08:47:58;;;;;;;4.13;3.83;;;;;;;;;;4702093;30;20242;-87
2021/09/15 08:50:26;;;;;;;4.50;4.10;;;;;;;;;;4702598;30;20215;-85
2021/09/15 08:52:54;;;;;;;3.90;3.60;;;;;;;;;;4703981;30;20216;-87
2021/09/15 08:55:21;;;;;;;3.17;2.97;;;;;;;;;;4706199;30;20198;-87
2021/09/15 08:57:49;;;;;;;6.05;3.80;;;;;;;;;;4704963;30;20237;-87
2021/09/15 09:00:18;;;;;;;5.35;4.90;;;;;;;;;;4704409;30;20220;-87
2021/09/15 09:02:53;;;;;;;5.20;4.80;;;;;;;;;;4701400;30;20222;-86
2021/09/15 09:05:20;;;;;;;3.45;3.15;;;;;;;;;;4699715;30;20237;-86
2021/09/15 09:07:48;;;;;;;6.30;5.80;;;;;;;;;;4701249;30;20238;-87
2021/09/15 09:10:17;;;;;;;5.40;5.00;;;;;;;;;;4701811;30;20230;-87
2021/09/15 09:12:47;;;;;;;3.88;3.58;;;;;;;;;;4701736;30;20195;-86
2021/09/15 09:15:22;;;;;;;4.50;3.30;;;;;;;;;;4688882;30;20210;-86
2021/09/15 09:17:50;;;;;;;4.10;3.80;;;;;;;;;;4684036;30;20258;-86
2021/09/15 09:20:27;;;;;;;4.78;4.38;;;;;;;;;;4685722;30;20242;-86
2021/09/15 09:23:08;;;;;;;5.43;5.03;;;;;;;;;;4696251;30;20296;-86
2021/09/15 09:25:40;;;;;;;4.72;4.43;;;;;;;;;;4685942;30;20231;-86
2021/09/15 09:28:23;;;;;;;4.30;4.00;;;;;;;;;;4685865;30;20285;-86
2021/09/15 09:30:53;;;;;;;3.50;3.20;;;;;;;;;;4686259;30;20702;-86
2021/09/15 09:33:21;;;;;;;3.88;3.58;;;;;;;;;;4685662;30;20207;-86
2021/09/15 09:35:50;;;;;;;5.43;4.90;;;;;;;;;;4683601;30;20211;-86
2021/09/15 09:38:28;;;;;;;3.20;3.00;;;;;;;;;;4683245;30;20251;-86
2021/09/15 09:41:06;;;;;;;3.40;3.20;;;;;;;;;;4683276;30;20222;-86
2021/09/15 09:43:35;;;;;;;3.67;3.38;;;;;;;;;;4683352;30;20310;-85
2021/09/15 09:46:05;;;;;;;4.95;4.50;;;;;;;;;;4683374;30;20235;-86
2021/09/15 09:48:39;;;;;;;4.20;3.90;;;;;;;;;;4683452;30;20586;-85
2021/09/15 09:51:25;;;;;;;3.67;3.45;;;;;;;;;;4683159;30;20215;-86
2021/09/15 09:54:06;;;;;;;4.57;4.15;;;;;;;;;;4683309;30;20310;-85
2021/09/15 09:56:34;;;;;;;3.60;3.35;;;;;;;;;;4683130;30;20258;-86
2021/09/15 09:59:02;;;;;;;4.82;4.43;;;;;;;;;;4683102;30;20214;-85
2021/09/15 10:01:33;;;;;;;4.45;4.15;;;;;;;;;;4683033;30;20621;-86
2021/09/15 10:04:01;;;;;;;4.18;3.42;;;;;;;;;;4683070;30;20219;-86
2021/09/15 10:06:28;;;;;;;4.40;4.00;;;;;;;;;;4683060;30;20239;-85
2021/09/15 10:08:56;;;;;;;3.70;3.40;;;;;;;;;;4682860;30;20240;-86
2021/09/15 10:11:24;;;;;;;4.10;3.80;;;;;;;;;;4683103;30;20215;-86
2021/09/15 10:13:51;;;;;;;3.72;2.90;;;;;;;;;;4682596;30;20571;-87
2021/09/15 10:16:21;;;;;;;3.30;3.10;;;;;;;;;;4682556;30;20216;-86
2021/09/15 10:18:56;;;;;;;3.85;3.60;;;;;;;;;;4682765;30;20662;-85
2021/09/15 10:21:27;;;;;;;4.35;3.78;;;;;;;;;;4682843;30;20302;-86
2021/09/15 10:23:55;;;;;;;4.40;3.70;;;;;;;;;;4683048;30;20683;-88
2021/09/15 10:26:31;;;;;;;4.18;3.92;;;;;;;;;;4682499;30;20737;-86
2021/09/15 10:29:32;;;;;;;5.05;4.65;;;;;;;;;;4690922;30;20570;-87
2021/09/15 10:32:08;;;;;;;4.45;4.15;;;;;;;;;;4682732;30;20211;-89
2021/09/15 10:34:53;;;;;;;4.50;4.18;;;;;;;;;;4703567;30;20216;-87
2021/09/15 10:37:49;;;;;;;6.90;4.45;;;;;;;;;;4717145;30;20238;-86
2021/09/15 10:40:42;;;;;;;3.67;3.38;;;;;;;;;;4686268;30;20247;-87
2021/09/15 10:43:52;;;;;;;3.33;3.10;;;;;;;;;;4716965;30;20635;-88
2021/09/15 10:46:27;;;;;;;3.92;3.63;;;;;;;;;;4703124;30;20245;-86
2021/09/15 10:49:45;;;;;;;3.80;3.50;;;;;;;;;;4717166;30;20226;-87
2021/09/15 10:52:28;;;;;;;3.45;3.20;;;;;;;;;;4717230;30;20202;-86
2021/09/15 10:54:58;;;;;;;2.88;2.67;;;;;;;;;;4717155;30;20205;-87
2021/09/15 10:57:40;;;;;;;2.75;2.35;;;;;;;;;;4716788;30;20269;-86
2021/09/15 11:00:23;;;;;;;4.03;3.72;;;;;;;;;;4717169;30;20214;-87
2021/09/15 11:02:51;;;;;;;3.20;3.00;;;;;;;;;;4717200;30;20237;-86
2021/09/15 11:05:47;;;;;;;2.25;2.15;;;;;;;;;;4706219;30;20211;-87
2021/09/15 11:08:40;;;;;;;3.63;3.28;;;;;;;;;;4682470;30;20718;-87
2021/09/15 11:11:09;;;;;;;2.60;2.40;;;;;;;;;;4682552;30;20207;-86
2021/09/15 11:13:53;;;;;;;3.20;3.00;;;;;;;;;;4682461;30;20588;-86
2021/09/15 11:16:30;;;;;;;2.85;2.65;;;;;;;;;;4688768;30;20210;-87
2021/09/15 11:18:59;;;;;;;2.80;2.60;;;;;;;;;;4699212;30;20198;-86
2021/09/15 11:21:29;;;;;;;2.55;2.35;;;;;;;;;;4699313;30;20687;-87
2021/09/15 11:24:09;;;;;;;2.78;2.58;;;;;;;;;;4699503;30;20215;-86
2021/09/15 11:26:47;;;;;;;2.70;2.50;;;;;;;;;;4698768;30;20653;-86
2021/09/15 11:29:16;;;;;;;2.28;2.17;;;;;;;;;;4699297;30;20199;-86
2021/09/15 11:31:45;;;;;;;2.30;2.10;;;;;;;;;;4689752;30;20210;-85
2021/09/15 11:34:14;;;;;;;2.70;2.50;;;;;;;;;;4696020;30;20216;-86
2021/09/15 11:36:49;;;;;;;4.85;3.70;;;;;;;;;;4699023;30;20238;-87
2021/09/15 11:39:24;;;;;;;2.88;2.33;;;;;;;;;;4699454;30;20202;-86
2021/09/15 11:42:00;;;;;;;3.88;3.58;;;;;;;;;;4710379;30;20590;-87
2021/09/15 11:44:28;;;;;;;2.95;2.75;;;;;;;;;;4716641;30;20209;-87
2021/09/15 11:46:55;;;;;;;3.45;3.15;;;;;;;;;;4716371;30;20324;-87
2021/09/15 11:49:31;;;;;;;3.30;3.00;;;;;;;;;;4713704;30;20306;-87
2021/09/15 11:52:00;;;;;;;2.20;2.10;;;;;;;;;;4692764;30;20214;-86
2021/09/15 11:54:30;;;;;;;2.15;2.05;;;;;;;;;;4704948;30;20218;-87
2021/09/15 11:59:42;;;;;;;2.20;2.00;;;;;;;;;;4681661;30;20246;-86
2021/09/15 12:02:14;;;;;;;1.85;1.75;;;;;;;;;;4681996;30;20203;-86
2021/09/15 12:04:45;;;;;;;2.65;2.47;;;;;;;;;;4681575;30;20219;-86
2021/09/15 12:07:16;;;;;;;2.08;1.88;;;;;;;;;;4705755;30;20238;-85
2021/09/15 12:09:45;;;;;;;1.70;1.60;;;;;;;;;;4709326;30;20206;-87
2021/09/15 12:12:13;;;;;;;2.25;2.05;;;;;;;;;;4687951;30;20213;-86
2021/09/15 12:14:43;;;;;;;2.17;2.08;;;;;;;;;;4689323;30;20844;-85
2021/09/15 12:17:11;;;;;;;2.67;2.47;;;;;;;;;;4707936;30;20721;-84
2021/09/15 12:19:51;;;;;;;2.53;2.00;;;;;;;;;;4716567;30;20217;-87
2021/09/15 12:22:22;;;;;;;2.40;2.20;;;;;;;;;;4716370;30;20284;-83
2021/09/15 12:25:04;;;;;;;2.88;2.55;;;;;;;;;;4688168;30;20222;-84
2021/09/15 12:27:33;;;;;;;2.53;2.33;;;;;;;;;;4698622;30;20325;-85
2021/09/15 12:30:06;;;;;;;2.30;2.20;;;;;;;;;;4698688;30;20670;-85
2021/09/15 12:32:36;;;;;;;2.00;1.90;;;;;;;;;;4698823;30;20214;-85
2021/09/15 12:35:07;;;;;;;2.40;2.15;;;;;;;;;;4681814;30;20208;-85
2021/09/15 12:37:40;;;;;;;3.03;2.83;;;;;;;;;;4681886;30;20294;-85
2021/09/15 12:40:19;;;;;;;3.80;1.70;;;;;;;;;;4684450;30;20206;-85
2021/09/15 12:43:00;;;;;;;2.75;2.50;;;;;;;;;;4692354;30;20203;-85
2021/09/15 12:45:29;;;;;;;3.05;2.20;;;;;;;;;;4702054;30;20199;-85
2021/09/15 12:47:56;;;;;;;1.83;1.73;;;;;;;;;;4706681;30;20235;-85
2021/09/15 12:50:27;;;;;;;2.10;2.00;;;;;;;;;;4692662;30;20223;-85
2021/09/15 12:53:06;;;;;;;1.83;1.73;;;;;;;;;;4688377;30;20206;-86
2021/09/15 12:55:43;;;;;;;2.17;1.98;;;;;;;;;;4701449;30;20214;-83
2021/09/15 12:58:11;;;;;;;1.85;1.70;;;;;;;;;;4701653;30;20234;-86
2021/09/15 13:00:45;;;;;;;2.13;2.03;;;;;;;;;;4701567;30;20214;-86
2021/09/15 13:03:14;;;;;;;2.13;2.03;;;;;;;;;;4701213;30;20273;-86
2021/09/15 13:05:45;;;;;;;1.80;1.70;;;;;;;;;;4701330;30;20198;-86
2021/09/15 13:08:27;;;;;;;1.90;1.80;;;;;;;;;;4701343;30;20707;-85
2021/09/15 13:10:58;;;;;;;2.40;1.92;;;;;;;;;;4714715;30;20217;-85
2021/09/15 13:13:27;;;;;;;2.22;2.00;;;;;;;;;;4708896;30;20219;-86
2021/09/15 13:15:55;;;;;;;2.33;2.20;;;;;;;;;;4690808;30;20247;-86
2021/09/15 13:18:23;;;;;;;2.97;2.55;;;;;;;;;;4701050;30;20237;-86
2021/09/15 13:20:51;;;;;;;2.58;2.40;;;;;;;;;;4699755;30;20214;-85
2021/09/15 13:23:20;;;;;;;2.63;2.42;;;;;;;;;;4695277;30;20202;-86
2021/09/15 13:25:48;;;;;;;2.05;1.90;;;;;;;;;;4701004;30;20191;-86
2021/09/15 13:28:17;;;;;;;2.35;2.15;;;;;;;;;;4700798;30;20246;-87
2021/09/15 13:30:45;;;;;;;2.03;1.92;;;;;;;;;;4698761;30;20276;-88
2021/09/15 13:33:12;;;;;;;3.78;3.47;;;;;;;;;;4689882;30;20210;-87
2021/09/15 13:35:40;;;;;;;2.65;2.30;;;;;;;;;;4701364;30;20195;-85
2021/09/15 13:38:07;;;;;;;2.50;2.30;;;;;;;;;;4699269;30;20246;-85
2021/09/15 13:40:35;;;;;;;2.38;2.20;;;;;;;;;;4685005;30;20219;-86
2021/09/15 13:43:03;;;;;;;2.28;2.08;;;;;;;;;;4688780;30;20243;-86
2021/09/15 13:45:33;;;;;;;2.15;2.05;;;;;;;;;;4718033;30;20261;-87
2021/09/15 13:48:00;;;;;;;2.10;2.00;;;;;;;;;;4718279;30;20610;-88
2021/09/15 13:50:28;;;;;;;1.83;1.73;;;;;;;;;;4703300;30;20223;-87
2021/09/15 13:52:56;;;;;;;2.25;2.08;;;;;;;;;;4694285;30;20218;-86
2021/09/15 13:55:24;;;;;;;2.30;2.10;;;;;;;;;;4700640;30;20214;-87
2021/09/15 13:57:52;;;;;;;2.00;1.80;;;;;;;;;;4700616;30;20237;-88
2021/09/15 14:00:20;;;;;;;2.50;2.30;;;;;;;;;;4700267;30;20652;-87
2021/09/15 14:02:49;;;;;;;2.13;2.03;;;;;;;;;;4699992;30;20199;-87
2021/09/15 14:05:17;;;;;;;1.60;1.50;;;;;;;;;;4700556;30;20206;-88
2021/09/15 14:07:48;;;;;;;1.67;1.58;;;;;;;;;;4700373;30;20609;-87
2021/09/15 14:10:16;;;;;;;1.63;1.52;;;;;;;;;;4700114;30;20699;-88
2021/09/15 14:12:43;;;;;;;3.03;1.80;;;;;;;;;;4700325;30;20199;-88
2021/09/15 14:15:12;;;;;;;1.63;1.52;;;;;;;;;;4700447;30;20203;-88
2021/09/15 14:17:39;;;;;;;1.92;1.80;;;;;;;;;;4700232;30;20234;-88
2021/09/15 14:20:10;;;;;;;1.77;1.67;;;;;;;;;;4713457;30;20220;-88
2021/09/15 14:22:37;;;;;;;1.98;1.83;;;;;;;;;;4710382;30;20213;-87
2021/09/15 14:25:07;;;;;;;2.00;1.80;;;;;;;;;;4700206;30;20209;-87
2021/09/15 14:27:34;;;;;;;1.52;1.42;;;;;;;;;;4700129;30;20632;-86
2021/09/15 14:30:03;;;;;;;1.92;1.83;;;;;;;;;;4698503;30;20231;-88
2021/09/15 14:32:30;;;;;;;2.22;2.03;;;;;;;;;;4689603;30;20218;-87
2021/09/15 14:34:58;;;;;;;2.40;2.20;;;;;;;;;;4688815;30;20207;-87
2021/09/15 14:37:27;;;;;;;2.10;1.95;;;;;;;;;;4682342;30;20243;-88
2021/09/15 14:39:54;;;;;;;2.05;1.95;;;;;;;;;;4682615;30;20211;-87
2021/09/15 14:42:25;;;;;;;3.65;3.33;;;;;;;;;;4690320;30;20221;-86
2021/09/15 14:44:52;;;;;;;2.03;1.83;;;;;;;;;;4699632;30;20214;-87
2021/09/15 14:47:20;;;;;;;2.35;2.15;;;;;;;;;;4699710;30;20297;-88
2021/09/15 14:49:48;;;;;;;1.90;1.80;;;;;;;;;;4699734;30;20561;-87
2021/09/15 14:52:15;;;;;;;2.53;2.35;;;;;;;;;;4699815;30;20619;-86
2021/09/15 14:54:44;;;;;;;2.13;2.00;;;;;;;;;;4699580;30;20217;-87
2021/09/15 14:57:12;;;;;;;2.13;2.03;;;;;;;;;;4699712;30;20234;-86
2021/09/15 14:59:40;;;;;;;2.13;2.00;;;;;;;;;;4699617;30;20207;-87
2021/09/15 15:02:09;;;;;;;2.20;2.10;;;;;;;;;;4699316;30;20210;-88
2021/09/15 15:04:37;;;;;;;2.20;1.98;;;;;;;;;;4683428;30;20223;-87
2021/09/15 15:07:06;;;;;;;2.50;2.30;;;;;;;;;;4682263;30;20235;-88
2021/09/15 15:09:35;;;;;;;1.80;1.70;;;;;;;;;;4682075;30;20235;-89